createdAt,value
2018-06-12T00:00:15.003Z,0
2018-06-12T00:01:23.648Z,0
2018-06-12T00:02:32.827Z,0
2018-06-12T00:03:41.464Z,0
2018-06-12T00:04:50.639Z,0
2018-06-12T00:05:59.281Z,0
2018-06-12T00:07:07.938Z,0
2018-06-12T00:08:16.573Z,0
2018-06-12T00:09:25.485Z,0
2018-06-12T00:10:34.129Z,0
2018-06-12T00:11:42.785Z,0
2018-06-12T00:12:51.428Z,0
2018-06-12T00:14:00.069Z,0
2018-06-12T00:15:08.713Z,0
2018-06-12T00:16:17.352Z,0
2018-06-12T00:17:26.009Z,0
2018-06-12T00:18:34.918Z,0
2018-06-12T00:19:43.568Z,0
2018-06-12T00:20:52.205Z,0
2018-06-12T00:22:00.860Z,0
2018-06-12T00:23:09.763Z,0
2018-06-12T00:24:18.412Z,0
2018-06-12T00:25:27.309Z,0
2018-06-12T00:26:35.965Z,0
2018-06-12T00:27:44.619Z,0
2018-06-12T00:28:53.523Z,0
2018-06-12T00:30:02.159Z,0
2018-06-12T00:31:10.807Z,0
2018-06-12T00:32:19.725Z,0
2018-06-12T00:33:28.375Z,0
2018-06-12T00:34:37.290Z,0
2018-06-12T00:35:46.196Z,0
2018-06-12T00:36:54.851Z,0
2018-06-12T00:38:03.489Z,0
2018-06-12T00:39:12.144Z,0
2018-06-12T00:40:20.785Z,0
2018-06-12T00:41:29.442Z,0
2018-06-12T00:42:38.344Z,0
2018-06-12T00:43:47.002Z,0
2018-06-12T00:44:55.642Z,0
2018-06-12T00:46:04.298Z,0
2018-06-12T00:47:12.937Z,0
2018-06-12T00:48:21.590Z,0
2018-06-12T00:49:30.232Z,0
2018-06-12T00:50:39.139Z,0
2018-06-12T00:51:47.781Z,0
2018-06-12T00:52:56.423Z,0
2018-06-12T00:54:05.075Z,0
2018-06-12T00:55:13.720Z,0
2018-06-12T00:56:22.365Z,0
2018-06-12T00:57:31.008Z,0
2018-06-12T00:58:39.657Z,0
2018-06-12T00:59:48.307Z,0
2018-06-12T01:00:56.947Z,0
2018-06-12T01:02:05.588Z,0
2018-06-12T01:03:14.239Z,0
2018-06-12T01:04:22.881Z,0
2018-06-12T01:05:31.530Z,0
2018-06-12T01:06:40.166Z,0
2018-06-12T01:07:48.815Z,0
2018-06-12T01:08:57.462Z,0
2018-06-12T01:10:06.113Z,0
2018-06-12T01:11:15.024Z,0
2018-06-12T01:12:23.934Z,0
2018-06-12T01:13:32.577Z,0
2018-06-12T01:14:41.222Z,0
2018-06-12T01:15:49.870Z,0
2018-06-12T01:16:58.510Z,0
2018-06-12T01:18:07.156Z,0
2018-06-12T01:19:15.800Z,0
2018-06-12T01:20:24.720Z,0
2018-06-12T01:21:33.365Z,0
2018-06-12T01:22:42.013Z,0
2018-06-12T01:23:50.656Z,0
2018-06-12T01:24:59.307Z,0
2018-06-12T01:26:07.950Z,0
2018-06-12T01:27:16.863Z,0
2018-06-12T01:28:25.503Z,0
2018-06-12T01:29:34.148Z,0
2018-06-12T01:30:42.797Z,0
2018-06-12T01:31:51.443Z,0
2018-06-12T01:33:00.091Z,0
2018-06-12T01:34:08.731Z,0
2018-06-12T01:35:17.380Z,0
2018-06-12T01:36:26.026Z,0
2018-06-12T01:37:34.670Z,0
2018-06-12T01:38:43.309Z,0
2018-06-12T01:39:51.959Z,0
2018-06-12T01:41:00.601Z,0
2018-06-12T01:42:09.249Z,0
2018-06-12T01:43:17.891Z,0
2018-06-12T01:44:26.540Z,0
2018-06-12T01:45:35.456Z,0
2018-06-12T01:46:44.103Z,0
2018-06-12T01:47:52.750Z,0
2018-06-12T01:49:01.388Z,0
2018-06-12T01:50:10.035Z,0
2018-06-12T01:51:18.681Z,0
2018-06-12T01:52:27.333Z,0
2018-06-12T01:53:36.239Z,0
2018-06-12T01:54:45.150Z,0
2018-06-12T01:55:53.789Z,0
2018-06-12T01:57:02.443Z,0
2018-06-12T01:58:11.344Z,0
2018-06-12T01:59:19.993Z,0
2018-06-12T02:00:28.637Z,0
2018-06-12T02:01:37.290Z,0
2018-06-12T02:02:45.932Z,0
2018-06-12T02:03:54.574Z,0
2018-06-12T02:05:03.215Z,0
2018-06-12T02:06:11.858Z,0
2018-06-12T02:07:20.511Z,0
2018-06-12T02:08:29.152Z,0
2018-06-12T02:13:26.817Z,0
2018-06-12T02:14:35.737Z,0
2018-06-12T02:15:44.376Z,0
2018-06-12T02:16:53.286Z,0
2018-06-12T02:18:01.921Z,0
2018-06-12T02:19:10.576Z,0
2018-06-12T02:20:19.218Z,0
2018-06-12T02:21:27.867Z,0
2018-06-12T02:22:36.503Z,0
2018-06-12T02:23:45.151Z,0
2018-06-12T02:24:53.800Z,0
2018-06-12T02:26:02.447Z,0
2018-06-12T02:27:11.096Z,0
2018-06-12T02:28:19.736Z,0
2018-06-12T02:29:28.387Z,0
2018-06-12T02:30:37.293Z,0
2018-06-12T02:31:45.950Z,0
2018-06-12T02:32:54.588Z,0
2018-06-12T02:34:03.244Z,0
2018-06-12T02:35:11.885Z,0
2018-06-12T02:36:20.815Z,0
2018-06-12T02:37:29.449Z,0
2018-06-12T02:38:38.097Z,0
2018-06-12T02:39:46.744Z,0
2018-06-12T02:40:55.672Z,0
2018-06-12T02:42:04.316Z,0
2018-06-12T02:43:12.956Z,0
2018-06-12T02:44:21.602Z,0
2018-06-12T02:45:30.249Z,0
2018-06-12T02:46:38.905Z,0
2018-06-12T02:47:47.549Z,0
2018-06-12T02:48:56.463Z,0
2018-06-12T02:50:05.100Z,0
2018-06-12T02:51:14.021Z,0
2018-06-12T02:52:22.668Z,0
2018-06-12T02:53:31.318Z,0
2018-06-12T02:54:40.239Z,0
2018-06-12T02:55:49.150Z,0
2018-06-12T02:56:57.803Z,0
2018-06-12T02:58:06.452Z,0
2018-06-12T02:59:15.114Z,0
2018-06-12T03:00:24.020Z,0
2018-06-12T03:01:32.658Z,5
2018-06-12T03:02:41.561Z,5
2018-06-12T03:03:50.202Z,5
2018-06-12T03:04:58.859Z,5
2018-06-12T03:06:07.500Z,5
2018-06-12T03:07:16.151Z,5
2018-06-12T03:08:24.799Z,5
2018-06-12T03:09:33.716Z,5
2018-06-12T03:10:42.620Z,5
2018-06-12T03:11:51.279Z,5
2018-06-12T03:13:00.178Z,5
2018-06-12T03:14:08.839Z,10
2018-06-12T03:15:17.488Z,10
2018-06-12T03:16:26.412Z,10
2018-06-12T03:17:35.298Z,10
2018-06-12T03:18:43.951Z,10
2018-06-12T03:19:52.604Z,15
2018-06-12T03:21:01.257Z,15
2018-06-12T03:22:10.441Z,15
2018-06-12T03:23:19.131Z,15
2018-06-12T03:24:27.728Z,15
2018-06-12T03:25:36.368Z,20
2018-06-12T03:26:45.024Z,20
2018-06-12T03:27:53.659Z,25
2018-06-12T03:29:02.575Z,25
2018-06-12T03:30:11.224Z,25
2018-06-12T03:31:19.883Z,25
2018-06-12T03:32:28.514Z,25
2018-06-12T03:33:37.429Z,30
2018-06-12T03:34:46.073Z,30
2018-06-12T03:35:54.726Z,30
2018-06-12T03:37:03.642Z,30
2018-06-12T03:38:12.283Z,30
2018-06-12T03:39:20.928Z,30
2018-06-12T03:40:29.575Z,30
2018-06-12T03:41:38.535Z,30
2018-06-12T03:42:47.440Z,30
2018-06-12T03:43:56.090Z,30
2018-06-12T03:45:04.724Z,30
2018-06-12T03:46:13.386Z,25
2018-06-12T03:47:22.019Z,20
2018-06-12T03:48:30.668Z,15
2018-06-12T03:49:39.302Z,15
2018-06-12T03:50:48.228Z,15
2018-06-12T03:51:56.871Z,15
2018-06-12T03:53:05.781Z,15
2018-06-12T03:54:14.424Z,20
2018-06-12T03:55:23.071Z,20
2018-06-12T03:56:31.719Z,25
2018-06-12T03:57:40.366Z,30
2018-06-12T03:58:49.013Z,35
2018-06-12T03:59:57.655Z,40
2018-06-12T04:01:06.303Z,45
2018-06-12T04:02:14.948Z,45
2018-06-12T04:03:23.605Z,50
2018-06-12T04:04:32.513Z,50
2018-06-12T04:05:41.155Z,55
2018-06-12T04:06:50.088Z,60
2018-06-12T04:07:58.741Z,65
2018-06-12T04:09:07.383Z,60
2018-06-12T04:10:16.298Z,60
2018-06-12T04:11:24.944Z,65
2018-06-12T04:12:33.855Z,65
2018-06-12T04:13:42.497Z,60
2018-06-12T04:14:51.248Z,60
2018-06-12T04:16:00.239Z,60
2018-06-12T04:17:08.886Z,65
2018-06-12T04:18:17.900Z,65
2018-06-12T04:19:26.689Z,65
2018-06-12T04:20:35.489Z,65
2018-06-12T04:21:44.027Z,65
2018-06-12T04:22:52.682Z,70
2018-06-12T04:24:01.326Z,75
2018-06-12T04:25:09.980Z,80
2018-06-12T04:26:18.617Z,85
2018-06-12T04:27:27.267Z,95
2018-06-12T04:28:36.172Z,105
2018-06-12T04:29:44.821Z,105
2018-06-12T04:30:53.729Z,95
2018-06-12T04:32:02.376Z,95
2018-06-12T04:33:11.019Z,95
2018-06-12T04:34:19.666Z,100
2018-06-12T04:35:28.316Z,100
2018-06-12T04:36:37.224Z,100
2018-06-12T04:37:45.867Z,100
2018-06-12T04:38:54.510Z,105
2018-06-12T04:40:03.157Z,105
2018-06-12T04:41:11.800Z,105
2018-06-12T04:42:20.446Z,105
2018-06-12T04:43:29.093Z,105
2018-06-12T04:44:37.741Z,100
2018-06-12T04:45:46.383Z,100
2018-06-12T04:46:55.030Z,100
2018-06-12T04:48:03.693Z,95
2018-06-12T04:49:12.607Z,95
2018-06-12T04:50:21.512Z,95
2018-06-12T04:51:30.157Z,100
2018-06-12T04:52:38.806Z,100
2018-06-12T04:53:47.454Z,100
2018-06-12T04:54:56.357Z,100
2018-06-12T04:56:05.007Z,100
2018-06-12T04:57:13.913Z,95
2018-06-12T04:58:22.570Z,100
2018-06-12T04:59:31.206Z,100
2018-06-12T05:00:39.854Z,100
2018-06-12T05:01:48.494Z,100
2018-06-12T05:02:57.152Z,100
2018-06-12T05:04:06.051Z,100
2018-06-12T05:05:14.716Z,100
2018-06-12T05:06:23.343Z,100
2018-06-12T05:07:31.998Z,105
2018-06-12T05:08:40.913Z,110
2018-06-12T05:09:49.559Z,110
2018-06-12T05:10:58.202Z,115
2018-06-12T05:12:06.843Z,120
2018-06-12T05:13:15.766Z,120
2018-06-12T05:14:24.410Z,125
2018-06-12T05:15:33.062Z,125
2018-06-12T05:16:41.698Z,125
2018-06-12T05:17:50.356Z,130
2018-06-12T05:18:58.997Z,130
2018-06-12T05:20:07.916Z,130
2018-06-12T05:21:16.816Z,130
2018-06-12T05:22:25.470Z,130
2018-06-12T05:23:34.113Z,130
2018-06-12T05:24:42.770Z,130
2018-06-12T05:25:51.408Z,135
2018-06-12T05:27:00.056Z,135
2018-06-12T05:28:08.706Z,135
2018-06-12T05:29:17.622Z,140
2018-06-12T05:30:26.271Z,140
2018-06-12T05:31:34.908Z,145
2018-06-12T05:32:43.559Z,145
2018-06-12T05:33:52.200Z,150
2018-06-12T05:35:00.857Z,155
2018-06-12T05:36:09.501Z,160
2018-06-12T05:37:18.152Z,170
2018-06-12T05:38:26.792Z,175
2018-06-12T05:39:35.448Z,180
2018-06-12T05:40:44.084Z,180
2018-06-12T05:41:53.273Z,185
2018-06-12T05:43:02.188Z,185
2018-06-12T05:44:10.842Z,190
2018-06-12T05:45:19.487Z,190
2018-06-12T05:46:28.130Z,200
2018-06-12T05:47:36.773Z,195
2018-06-12T05:48:45.415Z,190
2018-06-12T05:49:54.071Z,190
2018-06-12T05:51:02.986Z,190
2018-06-12T05:52:11.893Z,190
2018-06-12T05:53:20.537Z,190
2018-06-12T05:54:29.187Z,190
2018-06-12T05:55:37.900Z,190
2018-06-12T05:56:46.482Z,190
2018-06-12T05:57:55.123Z,190
2018-06-12T05:59:03.774Z,190
2018-06-12T06:00:12.416Z,190
2018-06-12T06:01:21.131Z,190
2018-06-12T06:02:29.708Z,195
2018-06-12T06:03:38.356Z,205
2018-06-12T06:04:47.004Z,210
2018-06-12T06:05:55.653Z,215
2018-06-12T06:07:04.303Z,220
2018-06-12T06:08:12.943Z,220
2018-06-12T06:09:21.596Z,225
2018-06-12T06:10:30.349Z,220
2018-06-12T06:11:38.896Z,220
2018-06-12T06:12:47.539Z,215
2018-06-12T06:13:56.192Z,205
2018-06-12T06:15:04.832Z,205
2018-06-12T06:16:13.484Z,200
2018-06-12T06:17:22.125Z,200
2018-06-12T06:18:30.773Z,200
2018-06-12T06:19:39.417Z,200
2018-06-12T06:20:48.068Z,195
2018-06-12T06:21:56.712Z,190
2018-06-12T06:23:05.355Z,180
2018-06-12T06:24:13.998Z,185
2018-06-12T06:25:22.906Z,190
2018-06-12T06:26:32.101Z,195
2018-06-12T06:27:40.749Z,190
2018-06-12T06:28:49.392Z,180
2018-06-12T06:29:58.301Z,180
2018-06-12T06:31:06.952Z,180
2018-06-12T06:32:15.600Z,175
2018-06-12T06:33:24.245Z,170
2018-06-12T06:34:32.895Z,170
2018-06-12T06:35:41.802Z,175
2018-06-12T06:36:50.721Z,180
2018-06-12T06:37:59.633Z,175
2018-06-12T06:39:08.276Z,170
2018-06-12T06:40:17.189Z,170
2018-06-12T06:41:25.833Z,180
2018-06-12T06:42:34.484Z,190
2018-06-12T06:43:43.137Z,190
2018-06-12T06:44:51.775Z,190
2018-06-12T06:46:00.688Z,190
2018-06-12T06:47:09.336Z,195
2018-06-12T06:48:17.986Z,190
2018-06-12T06:49:26.629Z,195
2018-06-12T06:50:35.274Z,200
2018-06-12T06:51:44.185Z,200
2018-06-12T06:52:52.830Z,200
2018-06-12T06:54:01.756Z,200
2018-06-12T06:55:10.668Z,195
2018-06-12T06:56:19.316Z,190
2018-06-12T06:57:27.957Z,195
2018-06-12T06:58:36.606Z,205
2018-06-12T06:59:45.254Z,210
2018-06-12T07:00:54.170Z,225
2018-06-12T07:02:02.829Z,215
2018-06-12T07:03:11.478Z,225
2018-06-12T07:04:20.122Z,225
2018-06-12T07:05:28.771Z,205
2018-06-12T07:06:37.422Z,205
2018-06-12T07:07:46.066Z,210
2018-06-12T07:08:54.977Z,215
2018-06-12T07:10:03.624Z,200
2018-06-12T07:11:12.273Z,175
2018-06-12T07:12:21.185Z,165
2018-06-12T07:13:29.837Z,175
2018-06-12T07:14:38.744Z,190
2018-06-12T07:15:47.395Z,210
2018-06-12T07:16:56.038Z,225
2018-06-12T07:18:04.686Z,240
2018-06-12T07:19:13.664Z,255
2018-06-12T07:20:22.313Z,270
2018-06-12T07:21:30.990Z,290
2018-06-12T07:22:39.652Z,300
2018-06-12T07:23:48.562Z,325
2018-06-12T07:24:57.466Z,350
2018-06-12T07:26:06.124Z,340
2018-06-12T07:27:14.778Z,320
2018-06-12T07:28:23.688Z,340
2018-06-12T07:29:32.595Z,355
2018-06-12T07:30:41.630Z,375
2018-06-12T07:31:50.869Z,390
2018-06-12T07:32:59.520Z,375
2018-06-12T07:34:08.427Z,350
2018-06-12T07:35:17.082Z,340
2018-06-12T07:36:25.738Z,335
2018-06-12T07:37:34.710Z,330
2018-06-12T07:38:43.683Z,330
2018-06-12T07:39:52.325Z,340
2018-06-12T07:41:00.975Z,325
2018-06-12T07:42:09.621Z,315
2018-06-12T07:43:18.450Z,300
2018-06-12T07:44:27.223Z,290
2018-06-12T07:45:36.184Z,295
2018-06-12T07:46:44.870Z,310
2018-06-12T07:47:53.574Z,320
2018-06-12T07:49:02.221Z,320
2018-06-12T07:50:10.872Z,325
2018-06-12T07:51:19.517Z,325
2018-06-12T07:52:28.175Z,330
2018-06-12T07:53:36.821Z,340
2018-06-12T07:54:45.466Z,335
2018-06-12T07:55:54.115Z,330
2018-06-12T07:57:03.284Z,320
2018-06-12T07:58:12.994Z,310
2018-06-12T07:59:21.639Z,300
2018-06-12T08:00:30.592Z,290
2018-06-12T08:01:39.232Z,290
2018-06-12T08:02:47.896Z,280
2018-06-12T08:03:56.801Z,275
2018-06-12T08:05:05.455Z,265
2018-06-12T08:06:14.096Z,260
2018-06-12T08:07:22.755Z,260
2018-06-12T08:08:31.400Z,260
2018-06-12T08:09:40.061Z,260
2018-06-12T08:10:48.704Z,260
2018-06-12T08:11:57.356Z,265
2018-06-12T08:13:06.128Z,265
2018-06-12T08:14:15.055Z,265
2018-06-12T08:15:23.706Z,265
2018-06-12T08:16:32.346Z,265
2018-06-12T08:17:40.999Z,275
2018-06-12T08:18:49.643Z,275
2018-06-12T08:19:58.300Z,280
2018-06-12T08:21:07.204Z,275
2018-06-12T08:22:15.862Z,270
2018-06-12T08:23:24.771Z,265
2018-06-12T08:24:33.431Z,255
2018-06-12T08:25:42.065Z,255
2018-06-12T08:26:50.719Z,255
2018-06-12T08:27:59.364Z,295
2018-06-12T08:29:08.025Z,335
2018-06-12T08:30:17.298Z,330
2018-06-12T08:31:25.756Z,290
2018-06-12T08:32:34.405Z,245
2018-06-12T08:33:43.049Z,215
2018-06-12T08:34:51.979Z,255
2018-06-12T08:36:00.623Z,250
2018-06-12T08:37:09.275Z,255
2018-06-12T08:38:17.914Z,290
2018-06-12T08:39:26.570Z,355
2018-06-12T08:40:35.219Z,395
2018-06-12T08:41:43.877Z,370
2018-06-12T08:42:52.779Z,310
2018-06-12T08:44:01.441Z,265
2018-06-12T08:45:10.357Z,250
2018-06-12T08:46:19.006Z,265
2018-06-12T08:47:27.646Z,245
2018-06-12T08:48:36.305Z,215
2018-06-12T08:49:45.218Z,220
2018-06-12T08:50:54.132Z,260
2018-06-12T08:52:02.784Z,305
2018-06-12T08:53:11.426Z,375
2018-06-12T08:54:20.076Z,430
2018-06-12T08:55:28.723Z,455
2018-06-12T08:56:37.643Z,470
2018-06-12T08:57:46.288Z,485
2018-06-12T08:58:54.937Z,495
2018-06-12T09:00:03.586Z,495
2018-06-12T09:01:12.251Z,495
2018-06-12T09:02:21.159Z,515
2018-06-12T09:03:29.811Z,520
2018-06-12T09:04:38.458Z,485
2018-06-12T09:05:47.111Z,480
2018-06-12T09:06:55.760Z,455
2018-06-12T09:08:04.408Z,405
2018-06-12T09:09:13.057Z,375
2018-06-12T09:10:21.702Z,360
2018-06-12T09:11:30.363Z,350
2018-06-12T09:12:39.019Z,340
2018-06-12T09:13:47.935Z,330
2018-06-12T09:14:57.126Z,325
2018-06-12T09:16:06.144Z,325
2018-06-12T09:17:14.794Z,330
2018-06-12T09:18:23.926Z,340
2018-06-12T09:19:32.820Z,330
2018-06-12T09:20:41.484Z,320
2018-06-12T09:21:50.169Z,325
2018-06-12T09:22:58.829Z,335
2018-06-12T09:24:07.474Z,350
2018-06-12T09:25:16.482Z,390
2018-06-12T09:26:25.131Z,400
2018-06-12T09:27:33.783Z,405
2018-06-12T09:28:42.435Z,370
2018-06-12T09:29:51.129Z,370
2018-06-12T09:30:59.812Z,330
2018-06-12T09:32:08.741Z,340
2018-06-12T09:33:17.396Z,320
2018-06-12T09:34:26.041Z,330
2018-06-12T09:35:34.695Z,360
2018-06-12T09:36:43.344Z,365
2018-06-12T09:37:51.995Z,415
2018-06-12T09:39:00.640Z,465
2018-06-12T09:40:09.294Z,510
2018-06-12T09:41:17.943Z,500
2018-06-12T09:42:26.597Z,480
2018-06-12T09:43:35.509Z,460
2018-06-12T09:44:44.160Z,405
2018-06-12T09:45:52.806Z,455
2018-06-12T09:47:01.454Z,515
2018-06-12T09:48:10.110Z,500
2018-06-12T09:49:18.755Z,440
2018-06-12T09:50:27.409Z,410
2018-06-12T09:51:36.052Z,410
2018-06-12T09:52:44.713Z,400
2018-06-12T09:53:53.359Z,405
2018-06-12T09:55:02.025Z,395
2018-06-12T09:56:11.217Z,360
2018-06-12T09:57:19.863Z,305
2018-06-12T09:58:28.515Z,295
2018-06-12T09:59:37.433Z,290
2018-06-12T10:00:46.079Z,280
2018-06-12T10:01:54.992Z,285
2018-06-12T10:03:03.651Z,315
2018-06-12T10:04:12.306Z,340
2018-06-12T10:05:21.223Z,335
2018-06-12T10:06:29.865Z,315
2018-06-12T10:07:38.521Z,285
2018-06-12T10:08:47.167Z,260
2018-06-12T10:09:55.827Z,255
2018-06-12T10:11:04.468Z,275
2018-06-12T10:12:13.126Z,300
2018-06-12T10:13:21.771Z,330
2018-06-12T10:14:30.429Z,350
2018-06-12T10:15:39.069Z,330
2018-06-12T10:16:47.720Z,300
2018-06-12T10:17:56.371Z,275
2018-06-12T10:19:05.031Z,270
2018-06-12T10:20:13.951Z,270
2018-06-12T10:21:22.597Z,270
2018-06-12T10:22:31.244Z,280
2018-06-12T10:23:39.890Z,305
2018-06-12T10:24:48.551Z,315
2018-06-12T10:25:57.197Z,340
2018-06-12T10:27:05.854Z,350
2018-06-12T10:28:14.501Z,360
2018-06-12T10:29:23.160Z,330
2018-06-12T10:30:32.078Z,300
2018-06-12T10:31:40.733Z,270
2018-06-12T10:32:49.374Z,270
2018-06-12T10:33:58.032Z,280
2018-06-12T10:35:06.939Z,295
2018-06-12T10:36:15.587Z,320
2018-06-12T10:37:24.330Z,335
2018-06-12T10:38:32.877Z,345
2018-06-12T10:39:41.537Z,345
2018-06-12T10:40:50.456Z,340
2018-06-12T10:41:59.105Z,330
2018-06-12T10:43:08.006Z,330
2018-06-12T10:44:16.928Z,335
2018-06-12T10:45:25.586Z,345
2018-06-12T10:46:34.225Z,345
2018-06-12T10:47:42.883Z,335
2018-06-12T10:48:51.531Z,330
2018-06-12T10:50:00.195Z,315
2018-06-12T10:51:08.826Z,305
2018-06-12T10:52:17.486Z,315
2018-06-12T10:53:26.136Z,325
2018-06-12T10:54:35.049Z,325
2018-06-12T10:55:43.813Z,315
2018-06-12T10:56:52.855Z,315
2018-06-12T10:58:01.508Z,310
2018-06-12T10:59:10.161Z,310
2018-06-12T11:00:19.084Z,340
2018-06-12T11:01:27.723Z,360
2018-06-12T11:02:36.382Z,365
2018-06-12T11:03:45.292Z,365
2018-06-12T11:04:53.949Z,380
2018-06-12T11:06:02.590Z,395
2018-06-12T11:07:11.245Z,405
2018-06-12T11:08:19.893Z,395
2018-06-12T11:09:28.556Z,390
2018-06-12T11:10:37.199Z,385
2018-06-12T11:11:45.852Z,390
2018-06-12T11:12:54.502Z,370
2018-06-12T11:14:03.423Z,360
2018-06-12T11:15:12.072Z,335
2018-06-12T11:16:20.720Z,335
2018-06-12T11:17:29.372Z,350
2018-06-12T11:18:38.027Z,340
2018-06-12T11:19:46.685Z,340
2018-06-12T11:20:55.356Z,340
2018-06-12T11:22:04.560Z,345
2018-06-12T11:23:13.254Z,335
2018-06-12T11:24:21.913Z,330
2018-06-12T11:25:30.825Z,335
2018-06-12T11:26:39.480Z,330
2018-06-12T11:27:48.121Z,325
2018-06-12T11:28:56.781Z,320
2018-06-12T11:30:05.435Z,320
2018-06-12T11:31:14.088Z,330
2018-06-12T11:32:23.000Z,340
2018-06-12T11:33:31.654Z,330
2018-06-12T11:34:40.312Z,320
2018-06-12T11:35:48.966Z,290
2018-06-12T11:36:57.617Z,275
2018-06-12T11:38:06.260Z,260
2018-06-12T11:39:14.914Z,245
2018-06-12T11:40:23.570Z,235
2018-06-12T11:41:32.226Z,230
2018-06-12T11:42:40.872Z,235
2018-06-12T11:43:49.521Z,245
2018-06-12T11:44:58.170Z,245
2018-06-12T11:46:07.095Z,240
2018-06-12T11:47:15.742Z,235
2018-06-12T11:48:24.399Z,225
2018-06-12T11:49:33.050Z,225
2018-06-12T11:50:41.973Z,215
2018-06-12T11:51:50.622Z,205
2018-06-12T11:52:59.533Z,200
2018-06-12T11:54:08.183Z,205
2018-06-12T11:55:16.830Z,230
2018-06-12T11:56:25.488Z,255
2018-06-12T11:57:34.140Z,280
2018-06-12T11:58:42.793Z,290
2018-06-12T11:59:51.439Z,305
2018-06-12T12:01:00.099Z,320
2018-06-12T12:02:09.287Z,325
2018-06-12T12:03:17.971Z,325
2018-06-12T12:04:26.618Z,315
2018-06-12T12:05:35.273Z,310
2018-06-12T12:06:43.922Z,305
2018-06-12T12:07:52.573Z,300
2018-06-12T12:09:01.220Z,295
2018-06-12T12:10:10.153Z,280
2018-06-12T12:11:18.812Z,280
2018-06-12T12:12:27.467Z,275
2018-06-12T12:13:36.123Z,275
2018-06-12T12:14:44.768Z,275
2018-06-12T12:15:53.421Z,285
2018-06-12T12:17:02.094Z,280
2018-06-12T12:18:10.733Z,285
2018-06-12T12:19:19.376Z,305
2018-06-12T12:20:28.027Z,325
2018-06-12T12:21:36.679Z,340
2018-06-12T12:22:45.333Z,340
2018-06-12T12:23:53.977Z,330
2018-06-12T12:25:02.632Z,325
2018-06-12T12:26:11.283Z,330
2018-06-12T12:27:19.944Z,325
2018-06-12T12:28:28.856Z,320
2018-06-12T12:29:37.507Z,320
2018-06-12T12:30:46.691Z,335
2018-06-12T12:31:55.336Z,350
2018-06-12T12:33:04.256Z,355
2018-06-12T12:34:15.131Z,370
2018-06-12T12:35:23.986Z,370
2018-06-12T12:36:32.907Z,365
2018-06-12T12:37:41.810Z,355
2018-06-12T12:38:50.737Z,345
2018-06-12T12:39:59.432Z,335
2018-06-12T12:41:08.079Z,330
2018-06-12T12:42:16.996Z,330
2018-06-12T12:43:25.645Z,340
2018-06-12T12:44:35.762Z,340
2018-06-12T12:45:44.531Z,340
2018-06-12T12:46:53.768Z,335
2018-06-12T12:48:02.931Z,335
2018-06-12T12:49:11.848Z,330
2018-06-12T12:50:20.501Z,325
2018-06-12T12:51:29.147Z,315
2018-06-12T12:52:37.799Z,330
2018-06-12T12:53:46.450Z,295
2018-06-12T12:54:55.103Z,280
2018-06-12T12:56:03.754Z,265
2018-06-12T12:57:12.405Z,265
2018-06-12T12:58:21.592Z,245
2018-06-12T12:59:30.248Z,235
2018-06-12T13:00:38.894Z,220
2018-06-12T13:01:47.547Z,220
2018-06-12T13:02:56.196Z,215
2018-06-12T13:04:04.852Z,215
2018-06-12T13:05:13.501Z,215
2018-06-12T13:06:22.154Z,210
2018-06-12T13:07:30.801Z,205
2018-06-12T13:08:39.449Z,200
2018-06-12T13:09:48.107Z,195
2018-06-12T13:10:57.021Z,195
2018-06-12T13:12:05.936Z,195
2018-06-12T13:13:14.584Z,200
2018-06-12T13:14:23.238Z,210
2018-06-12T13:15:32.427Z,215
2018-06-12T13:16:41.081Z,220
2018-06-12T13:17:49.993Z,225
2018-06-12T13:18:58.650Z,225
2018-06-12T13:20:07.315Z,230
2018-06-12T13:21:15.952Z,230
2018-06-12T13:22:24.598Z,230
2018-06-12T13:23:33.252Z,230
2018-06-12T13:24:41.901Z,235
2018-06-12T13:25:50.554Z,240
2018-06-12T13:26:59.202Z,245
2018-06-12T13:28:07.847Z,235
2018-06-12T13:29:16.498Z,230
2018-06-12T13:30:25.414Z,230
2018-06-12T13:31:34.071Z,230
2018-06-12T13:32:42.722Z,230
2018-06-12T13:33:51.418Z,225
2018-06-12T13:35:00.420Z,215
2018-06-12T13:36:09.074Z,210
2018-06-12T13:37:17.987Z,200
2018-06-12T13:38:26.641Z,190
2018-06-12T13:39:35.549Z,185
2018-06-12T13:40:44.212Z,185
2018-06-12T13:41:52.859Z,185
2018-06-12T13:43:01.507Z,180
2018-06-12T13:44:10.157Z,180
2018-06-12T13:45:19.064Z,180
2018-06-12T13:46:27.741Z,180
2018-06-12T13:47:36.381Z,175
2018-06-12T13:48:45.029Z,175
2018-06-12T13:49:53.669Z,170
2018-06-12T13:51:02.330Z,165
2018-06-12T13:52:10.975Z,160
2018-06-12T13:53:19.629Z,155
2018-06-12T13:54:28.271Z,145
2018-06-12T13:55:36.941Z,145
2018-06-12T13:56:45.592Z,150
2018-06-12T13:57:54.250Z,160
2018-06-12T13:59:02.894Z,160
2018-06-12T14:00:11.548Z,155
2018-06-12T14:01:20.204Z,160
2018-06-12T14:02:29.387Z,165
2018-06-12T14:03:38.040Z,160
2018-06-12T14:04:46.685Z,155
2018-06-12T14:05:55.604Z,150
2018-06-12T14:07:04.300Z,165
2018-06-12T14:08:12.915Z,185
2018-06-12T14:09:21.557Z,195
2018-06-12T14:10:30.487Z,210
2018-06-12T14:11:39.131Z,225
2018-06-12T14:12:47.793Z,245
2018-06-12T14:13:56.438Z,245
2018-06-12T14:15:05.351Z,210
2018-06-12T14:16:13.996Z,170
2018-06-12T14:17:22.655Z,150
2018-06-12T14:18:31.302Z,145
2018-06-12T14:19:39.948Z,160
2018-06-12T14:20:48.598Z,190
2018-06-12T14:21:57.260Z,225
2018-06-12T14:23:06.458Z,260
2018-06-12T14:24:15.104Z,270
2018-06-12T14:25:23.758Z,270
2018-06-12T14:26:32.667Z,255
2018-06-12T14:27:41.594Z,235
2018-06-12T14:28:50.239Z,235
2018-06-12T14:29:58.891Z,240
2018-06-12T14:31:07.533Z,235
2018-06-12T14:32:16.201Z,230
2018-06-12T14:33:25.375Z,210
2018-06-12T14:34:34.027Z,200
2018-06-12T14:35:42.669Z,215
2018-06-12T14:36:51.326Z,225
2018-06-12T14:38:00.252Z,225
2018-06-12T14:39:09.157Z,215
2018-06-12T14:40:17.805Z,215
2018-06-12T14:41:26.466Z,210
2018-06-12T14:42:35.130Z,215
2018-06-12T14:43:43.768Z,210
2018-06-12T14:44:52.409Z,200
2018-06-12T14:46:01.070Z,190
2018-06-12T14:47:09.714Z,175
2018-06-12T14:48:18.631Z,160
2018-06-12T14:49:27.273Z,155
2018-06-12T14:50:35.934Z,165
2018-06-12T14:51:45.136Z,180
2018-06-12T14:52:53.784Z,185
2018-06-12T14:54:02.684Z,195
2018-06-12T14:55:11.336Z,210
2018-06-12T14:56:19.994Z,225
2018-06-12T14:57:28.645Z,220
2018-06-12T14:58:37.301Z,205
2018-06-12T14:59:45.940Z,170
2018-06-12T15:00:54.595Z,145
2018-06-12T15:02:03.242Z,135
2018-06-12T15:03:11.902Z,130
2018-06-12T15:04:20.544Z,140
2018-06-12T15:05:29.200Z,155
2018-06-12T15:06:37.843Z,170
2018-06-12T15:07:46.769Z,185
2018-06-12T15:08:55.410Z,215
2018-06-12T15:10:04.324Z,240
2018-06-12T15:11:12.976Z,255
2018-06-12T15:12:21.635Z,245
2018-06-12T15:13:30.281Z,225
2018-06-12T15:14:39.191Z,200
2018-06-12T15:15:48.098Z,180
2018-06-12T15:16:56.746Z,170
2018-06-12T15:18:05.411Z,175
2018-06-12T15:19:14.058Z,190
2018-06-12T15:20:22.714Z,190
2018-06-12T15:21:31.355Z,185
2018-06-12T15:22:40.018Z,195
2018-06-12T15:23:48.662Z,205
2018-06-12T15:24:57.315Z,200
2018-06-12T15:26:05.957Z,205
2018-06-12T15:27:14.616Z,235
2018-06-12T15:28:23.262Z,260
2018-06-12T15:29:31.914Z,280
2018-06-12T15:30:40.557Z,280
2018-06-12T15:31:49.208Z,255
2018-06-12T15:32:57.859Z,225
2018-06-12T15:34:06.513Z,230
2018-06-12T15:35:15.167Z,255
2018-06-12T15:36:24.067Z,275
2018-06-12T15:37:32.721Z,280
2018-06-12T15:38:41.369Z,305
2018-06-12T15:39:50.023Z,325
2018-06-12T15:40:58.666Z,325
2018-06-12T15:42:07.315Z,335
2018-06-12T15:43:15.970Z,355
2018-06-12T15:44:24.890Z,375
2018-06-12T15:45:33.534Z,350
2018-06-12T15:46:42.186Z,340
2018-06-12T15:47:50.834Z,345
2018-06-12T15:48:59.747Z,370
2018-06-12T15:50:08.396Z,365
2018-06-12T15:51:17.041Z,350
2018-06-12T15:52:25.691Z,320
2018-06-12T15:53:34.338Z,300
2018-06-12T15:54:42.994Z,335
2018-06-12T15:55:51.645Z,315
2018-06-12T15:57:00.299Z,315
2018-06-12T15:58:09.210Z,285
2018-06-12T15:59:17.865Z,280
2018-06-12T16:00:26.514Z,265
2018-06-12T16:01:35.197Z,235
2018-06-12T16:02:44.111Z,220
2018-06-12T16:03:52.764Z,195
2018-06-12T16:05:01.414Z,180